Time,TemperatureF,DewpointF,PressureIn,WindDirection,WindDirectionDegrees,WindSpeedMPH,WindSpeedGustMPH,Humidity,HourlyPrecipIn,Conditions,Clouds,dailyrainin,SoftwareType,DateUTC
2013-06-27 04:34:00,64.0,-23.0,27.78,NNE,22,0.0,0.0,0,0.00,,,0.00,Rainwise IP-100,2013-06-27 08:34:00,
2013-06-27 04:39:00,65.0,-23.0,27.78,East,90,3.0,0.0,0,0.00,,,0.00,Rainwise IP-100,2013-06-27 08:39:00,
2013-06-27 04:44:00,65.0,-23.0,27.78,ESE,112,0.0,4.0,0,0.00,,,0.00,Rainwise IP-100,2013-06-27 08:44:00,
2013-06-27 05:20:00,65.0,-23.0,27.79,SSE,157,0.0,4.0,0,0.00,,,0.04,Rainwise IP-100,2013-06-27 09:20:00,
2013-06-27 05:25:00,65.0,-23.0,27.80,SSE,157,0.0,0.0,0,0.36,,,0.06,Rainwise IP-100,2013-06-27 09:25:00,
2013-06-27 05:30:00,65.0,-23.0,27.80,SW,225,0.0,0.0,0,0.42,,,0.07,Rainwise IP-100,2013-06-27 09:30:00,
2013-06-27 05:35:00,65.0,-23.0,27.80,SW,225,0.0,0.0,0,0.06,,,0.07,Rainwise IP-100,2013-06-27 09:35:00,
2013-06-27 05:40:00,65.0,-23.0,27.80,SW,225,0.0,0.0,0,0.00,,,0.07,Rainwise IP-100,2013-06-27 09:40:00,
2013-06-27 05:45:00,64.0,-23.0,27.79,SW,225,0.0,0.0,0,0.00,,,0.10,Rainwise IP-100,2013-06-27 09:45:00,
2013-06-27 05:50:00,64.0,-23.0,27.79,SW,225,0.0,0.0,0,0.30,,,0.12,Rainwise IP-100,2013-06-27 09:50:00,
2013-06-27 05:55:00,64.0,-23.0,27.79,SW,225,0.0,0.0,0,0.30,,,0.12,Rainwise IP-100,2013-06-27 09:55:00,
2013-06-27 06:00:00,64.0,-23.0,27.79,SW,225,0.0,0.0,0,0.00,,,0.12,Rainwise IP-100,2013-06-27 10:00:00,
2013-06-27 06:05:00,64.0,-23.0,27.79,SW,225,0.0,0.0,0,0.00,,,0.12,Rainwise IP-100,2013-06-27 10:05:00,
2013-06-27 06:10:00,64.0,-23.0,27.79,SW,225,0.0,0.0,0,0.00,,,0.12,Rainwise IP-100,2013-06-27 10:10:00,
2013-06-27 06:15:00,64.0,-23.0,27.79,SW,225,0.0,0.0,0,0.00,,,0.12,Rainwise IP-100,2013-06-27 10:15:00,
2013-06-27 06:20:00,64.0,-23.0,27.79,SW,225,0.0,0.0,0,0.00,,,0.12,Rainwise IP-100,2013-06-27 10:20:00,
2013-06-27 06:25:00,64.0,-23.0,27.79,SW,225,0.0,0.0,0,0.00,,,0.12,Rainwise IP-100,2013-06-27 10:25:00,
2013-06-27 06:30:00,64.0,-23.0,27.79,SW,225,0.0,0.0,0,0.00,,,0.12,Rainwise IP-100,2013-06-27 10:30:00,
2013-06-27 06:35:00,64.0,-23.0,27.79,SW,225,0.0,0.0,0,0.00,,,0.12,Rainwise IP-100,2013-06-27 10:35:00,
2013-06-27 06:40:00,64.0,-23.0,27.79,SW,225,0.0,0.0,0,0.00,,,0.12,Rainwise IP-100,2013-06-27 10:40:00,
2013-06-27 06:45:00,64.0,-23.0,27.79,SW,225,0.0,0.0,0,0.00,,,0.12,Rainwise IP-100,2013-06-27 10:45:00,
2013-06-27 06:50:00,64.0,-23.0,27.79,SW,225,0.0,0.0,0,0.00,,,0.12,Rainwise IP-100,2013-06-27 10:50:00,
2013-06-27 06:55:00,64.0,-23.0,27.79,SW,225,0.0,0.0,0,0.00,,,0.12,Rainwise IP-100,2013-06-27 10:55:00,
2013-06-27 07:00:00,64.0,-23.0,27.79,SW,225,0.0,0.0,0,0.00,,,0.12,Rainwise IP-100,2013-06-27 11:00:00,
2013-06-27 07:05:00,64.0,-23.0,27.79,SW,225,0.0,0.0,0,0.00,,,0.12,Rainwise IP-100,2013-06-27 11:05:00,
2013-06-27 07:10:00,64.0,-23.0,27.79,SW,225,0.0,0.0,0,0.00,,,0.12,Rainwise IP-100,2013-06-27 11:10:00,
2013-06-27 07:15:00,64.0,-23.0,27.79,SW,225,0.0,0.0,0,0.00,,,0.12,Rainwise IP-100,2013-06-27 11:15:00,
2013-06-27 07:20:00,64.0,-23.0,27.79,SW,225,0.0,0.0,0,0.00,,,0.12,Rainwise IP-100,2013-06-27 11:20:00,
2013-06-27 07:25:00,64.0,-23.0,27.79,SW,225,0.0,0.0,0,0.00,,,0.12,Rainwise IP-100,2013-06-27 11:25:00,
2013-06-27 07:30:00,64.0,-23.0,27.79,SW,225,0.0,0.0,0,0.00,,,0.12,Rainwise IP-100,2013-06-27 11:30:00,
2013-06-27 07:32:00,64.0,-23.0,27.79,SW,225,0.0,0.0,0,0.00,,,0.12,Rainwise IP-100,2013-06-27 11:32:00,
2013-06-27 07:37:00,64.0,-23.0,27.79,SW,225,0.0,0.0,0,0.00,,,0.12,Rainwise IP-100,2013-06-27 11:37:00,
2013-06-27 07:42:00,64.0,-23.0,27.76,NNE,22,0.0,0.0,0,0.12,,,0.14,Rainwise IP-100,2013-06-27 11:42:00,
2013-06-27 07:47:00,64.0,-23.0,27.76,NNE,22,0.0,0.0,0,0.12,,,0.14,Rainwise IP-100,2013-06-27 11:47:00,
2013-06-27 07:52:00,65.0,-23.0,27.76,NNE,22,0.0,0.0,0,0.00,,,0.14,Rainwise IP-100,2013-06-27 11:52:00,
2013-06-27 07:57:00,65.0,-23.0,27.76,NNE,22,0.0,0.0,0,0.00,,,0.14,Rainwise IP-100,2013-06-27 11:57:00,
2013-06-27 08:02:00,65.0,-23.0,27.76,NNE,22,0.0,0.0,0,0.00,,,0.14,Rainwise IP-100,2013-06-27 12:02:00,
2013-06-27 08:07:00,65.0,-23.0,27.76,NNE,22,0.0,0.0,0,0.00,,,0.14,Rainwise IP-100,2013-06-27 12:07:00,
2013-06-27 08:12:00,65.0,-23.0,27.76,NNE,22,0.0,0.0,0,0.00,,,0.14,Rainwise IP-100,2013-06-27 12:12:00,
2013-06-27 08:17:00,65.0,-23.0,27.76,NNE,22,0.0,0.0,0,0.00,,,0.14,Rainwise IP-100,2013-06-27 12:17:00,
2013-06-27 08:22:00,66.0,-23.0,27.76,ESE,112,0.0,0.0,0,0.00,,,0.14,Rainwise IP-100,2013-06-27 12:22:00,
2013-06-27 08:27:00,65.0,-23.0,27.76,ESE,112,0.0,0.0,0,0.00,,,0.14,Rainwise IP-100,2013-06-27 12:27:00,
2013-06-27 08:32:00,66.0,-23.0,27.76,ESE,112,0.0,0.0,0,0.00,,,0.14,Rainwise IP-100,2013-06-27 12:32:00,
2013-06-27 08:37:00,65.0,-23.0,27.76,ESE,112,0.0,0.0,0,0.00,,,0.14,Rainwise IP-100,2013-06-27 12:37:00,
2013-06-27 08:42:00,66.0,-23.0,27.76,ESE,112,0.0,0.0,0,0.00,,,0.14,Rainwise IP-100,2013-06-27 12:42:00,
2013-06-27 08:47:00,66.0,-23.0,27.76,ESE,112,0.0,0.0,0,0.00,,,0.14,Rainwise IP-100,2013-06-27 12:47:00,
2013-06-27 08:52:00,66.0,-23.0,27.76,ESE,112,0.0,0.0,0,0.00,,,0.14,Rainwise IP-100,2013-06-27 12:52:00,
2013-06-27 08:57:00,66.0,-23.0,27.76,ESE,112,0.0,0.0,0,0.00,,,0.14,Rainwise IP-100,2013-06-27 12:57:00,
2013-06-27 09:02:00,67.0,-23.0,27.75,ESE,112,0.0,0.0,0,0.00,,,0.14,Rainwise IP-100,2013-06-27 13:02:00,
2013-06-27 09:07:00,67.0,-23.0,27.75,ESE,112,0.0,0.0,0,0.00,,,0.14,Rainwise IP-100,2013-06-27 13:07:00,
2013-06-27 09:12:00,67.0,-23.0,27.74,SSE,157,0.0,0.0,0,0.00,,,0.14,Rainwise IP-100,2013-06-27 13:12:00,
2013-06-27 09:17:00,67.0,-23.0,27.74,SSE,157,0.0,0.0,0,0.00,,,0.14,Rainwise IP-100,2013-06-27 13:17:00,
2013-06-27 09:22:00,67.0,-23.0,27.74,SSE,157,0.0,0.0,0,0.00,,,0.14,Rainwise IP-100,2013-06-27 13:22:00,
2013-06-27 09:27:00,67.0,-23.0,27.74,SSE,157,0.0,0.0,0,0.00,,,0.14,Rainwise IP-100,2013-06-27 13:27:00,
2013-06-27 09:32:00,67.0,-23.0,27.74,SSE,157,0.0,0.0,0,0.00,,,0.14,Rainwise IP-100,2013-06-27 13:32:00,
2013-06-27 09:37:00,67.0,-23.0,27.74,SSE,157,0.0,0.0,0,0.00,,,0.14,Rainwise IP-100,2013-06-27 13:37:00,
2013-06-27 09:42:00,67.0,-23.0,27.74,SSW,202,0.0,0.0,0,0.00,,,0.14,Rainwise IP-100,2013-06-27 13:42:00,
2013-06-27 09:47:00,68.0,-23.0,27.74,SSW,202,0.0,3.0,0,0.00,,,0.14,Rainwise IP-100,2013-06-27 13:47:00,
2013-06-27 09:52:00,68.0,-23.0,27.75,SSW,202,0.0,0.0,0,0.00,,,0.14,Rainwise IP-100,2013-06-27 13:52:00,
2013-06-27 09:57:00,68.0,-23.0,27.75,SSW,202,0.0,0.0,0,0.00,,,0.14,Rainwise IP-100,2013-06-27 13:57:00,
2013-06-27 10:02:00,69.0,-23.0,27.74,SSW,202,0.0,0.0,0,0.00,,,0.14,Rainwise IP-100,2013-06-27 14:02:00,
2013-06-27 10:07:00,69.0,-23.0,27.74,SSW,202,0.0,0.0,0,0.00,,,0.14,Rainwise IP-100,2013-06-27 14:07:00,
2013-06-27 10:12:00,69.0,-23.0,27.74,SSW,202,0.0,0.0,0,0.00,,,0.14,Rainwise IP-100,2013-06-27 14:12:00,
2013-06-27 10:17:00,69.0,-23.0,27.74,SSW,202,0.0,2.0,0,0.00,,,0.14,Rainwise IP-100,2013-06-27 14:17:00,
2013-06-27 10:22:00,69.0,-23.0,27.74,SE,135,0.0,3.0,0,0.00,,,0.14,Rainwise IP-100,2013-06-27 14:22:00,
2013-06-27 10:27:00,69.0,-23.0,27.74,SE,135,0.0,1.0,0,0.00,,,0.14,Rainwise IP-100,2013-06-27 14:27:00,
2013-06-27 10:32:00,70.0,-23.0,27.73,SSE,157,0.0,0.0,0,0.00,,,0.14,Rainwise IP-100,2013-06-27 14:32:00,
2013-06-27 10:37:00,70.0,-23.0,27.73,SSE,157,0.0,0.0,0,0.00,,,0.14,Rainwise IP-100,2013-06-27 14:37:00,
2013-06-27 10:42:00,72.0,-23.0,27.73,SSE,157,0.0,0.0,0,0.00,,,0.14,Rainwise IP-100,2013-06-27 14:42:00,
2013-06-27 10:47:00,72.0,-23.0,27.73,SSE,157,0.0,0.0,0,0.00,,,0.14,Rainwise IP-100,2013-06-27 14:47:00,
2013-06-27 10:52:00,73.0,-23.0,27.72,South,180,0.0,2.0,0,0.00,,,0.14,Rainwise IP-100,2013-06-27 14:52:00,
2013-06-27 10:57:00,74.0,-23.0,27.72,SSW,202,0.0,3.0,0,0.00,,,0.14,Rainwise IP-100,2013-06-27 14:57:00,
2013-06-27 11:02:00,75.0,-23.0,27.72,SSE,157,0.0,0.0,0,0.00,,,0.14,Rainwise IP-100,2013-06-27 15:02:00,
2013-06-27 11:07:00,77.0,-23.0,27.72,SSW,202,0.0,0.0,0,0.00,,,0.14,Rainwise IP-100,2013-06-27 15:07:00,
2013-06-27 11:12:00,77.0,-23.0,27.72,South,180,0.0,3.0,0,0.00,,,0.14,Rainwise IP-100,2013-06-27 15:12:00,
2013-06-27 11:17:00,77.0,-23.0,27.72,SSW,202,0.0,0.0,0,0.00,,,0.14,Rainwise IP-100,2013-06-27 15:17:00,
2013-06-27 11:22:00,78.0,-23.0,27.71,SSE,157,0.0,3.0,0,0.00,,,0.14,Rainwise IP-100,2013-06-27 15:22:00,
2013-06-27 11:27:00,78.0,-23.0,27.71,SSE,157,0.0,0.0,0,0.00,,,0.14,Rainwise IP-100,2013-06-27 15:27:00,
2013-06-27 11:32:00,79.0,16.0,27.71,SSE,157,0.0,0.0,9,0.00,,,0.14,Rainwise IP-100,2013-06-27 15:32:00,
2013-06-27 11:37:00,79.0,16.0,27.71,SSE,157,0.0,0.0,9,0.00,,,0.14,Rainwise IP-100,2013-06-27 15:37:00,
2013-06-27 11:42:00,79.0,55.0,27.71,SE,135,0.0,0.0,44,0.00,,,0.14,Rainwise IP-100,2013-06-27 15:42:00,
2013-06-27 11:47:00,78.0,44.0,27.71,West,270,0.0,3.0,30,0.00,,,0.14,Rainwise IP-100,2013-06-27 15:47:00,
2013-06-27 11:52:00,78.0,18.0,27.72,West,270,0.0,0.0,10,0.00,,,0.14,Rainwise IP-100,2013-06-27 15:52:00,
2013-06-27 11:57:00,79.0,24.0,27.72,West,270,0.0,0.0,13,0.00,,,0.14,Rainwise IP-100,2013-06-27 15:57:00,
2013-06-27 12:02:00,80.0,47.5,27.71,West,270,0.0,0.0,32,0.00,,,0.14,Rainwise IP-100,2013-06-27 16:02:00,
2013-06-27 12:07:00,81.0,69.0,27.71,NW,315,0.0,0.0,66,0.00,,,0.14,Rainwise IP-100,2013-06-27 16:07:00,
2013-06-27 12:12:00,82.0,63.5,27.70,NW,315,0.0,0.0,54,0.00,,,0.14,Rainwise IP-100,2013-06-27 16:12:00,
2013-06-27 12:17:00,82.0,61.0,27.70,NW,315,0.0,0.0,49,0.00,,,0.14,Rainwise IP-100,2013-06-27 16:17:00,
2013-06-27 12:22:00,82.0,71.0,27.70,NW,315,0.0,0.0,69,0.00,,,0.14,Rainwise IP-100,2013-06-27 16:22:00,
2013-06-27 12:27:00,82.0,71.3,27.70,NW,315,0.0,0.0,70,0.00,,,0.14,Rainwise IP-100,2013-06-27 16:27:00,
2013-06-27 12:32:00,82.0,73.3,27.69,SW,225,0.0,0.0,75,0.00,,,0.14,Rainwise IP-100,2013-06-27 16:32:00,
2013-06-27 12:37:00,82.0,60.0,27.69,SW,225,0.0,0.0,47,0.00,,,0.14,Rainwise IP-100,2013-06-27 16:37:00,
2013-06-27 12:42:00,82.0,70.0,27.69,SW,225,0.0,0.0,67,0.00,,,0.14,Rainwise IP-100,2013-06-27 16:42:00,
2013-06-27 12:47:00,80.0,72.0,27.69,WSW,247,0.0,0.0,77,0.00,,,0.14,Rainwise IP-100,2013-06-27 16:47:00,
2013-06-27 12:52:00,80.0,71.0,27.70,West,270,0.0,0.0,74,0.00,,,0.14,Rainwise IP-100,2013-06-27 16:52:00,
2013-06-27 12:57:00,80.0,68.0,27.70,West,270,0.0,0.0,67,0.00,,,0.14,Rainwise IP-100,2013-06-27 16:57:00,
2013-06-27 13:02:00,81.0,69.0,27.70,West,270,0.0,0.0,66,0.00,,,0.14,Rainwise IP-100,2013-06-27 17:02:00,
2013-06-27 13:07:00,82.0,70.5,27.70,SE,135,0.0,0.0,68,0.00,,,0.14,Rainwise IP-100,2013-06-27 17:07:00,
2013-06-27 13:12:00,84.0,77.7,27.68,SSW,202,0.0,0.0,81,0.00,,,0.14,Rainwise IP-100,2013-06-27 17:12:00,
2013-06-27 13:17:00,84.0,80.5,27.68,SSW,202,0.0,0.0,89,0.00,,,0.14,Rainwise IP-100,2013-06-27 17:17:00,
2013-06-27 13:22:00,83.0,78.3,27.68,South,180,0.0,0.0,86,0.00,,,0.14,Rainwise IP-100,2013-06-27 17:22:00,
2013-06-27 13:27:00,84.0,80.5,27.68,SSW,202,0.0,0.0,89,0.00,,,0.14,Rainwise IP-100,2013-06-27 17:27:00,
2013-06-27 13:32:00,84.0,80.5,27.68,SSE,157,0.0,0.0,89,0.00,,,0.14,Rainwise IP-100,2013-06-27 17:32:00,
2013-06-27 13:37:00,84.0,80.8,27.68,NNE,22,0.0,0.0,90,0.00,,,0.14,Rainwise IP-100,2013-06-27 17:37:00,
2013-06-27 13:42:00,83.0,80.0,27.68,NW,315,0.0,0.0,90,0.00,,,0.14,Rainwise IP-100,2013-06-27 17:42:00,
2013-06-27 13:47:00,82.0,78.3,27.68,WNW,292,0.0,0.0,89,0.00,,,0.14,Rainwise IP-100,2013-06-27 17:47:00,
2013-06-27 13:52:00,83.0,79.3,27.68,SW,225,0.0,0.0,89,0.00,,,0.14,Rainwise IP-100,2013-06-27 17:52:00,
2013-06-27 13:57:00,83.0,79.3,27.68,SW,225,0.0,0.0,89,0.00,,,0.14,Rainwise IP-100,2013-06-27 17:57:00,
2013-06-27 14:02:00,83.0,79.3,27.68,ESE,112,0.0,0.0,89,0.00,,,0.14,Rainwise IP-100,2013-06-27 18:02:00,
2013-06-27 14:07:00,84.0,79.0,27.68,East,90,0.0,0.0,85,0.00,,,0.14,Rainwise IP-100,2013-06-27 18:07:00,
2013-06-27 14:12:00,86.0,82.3,27.66,ENE,67,0.0,0.0,89,0.00,,,0.14,Rainwise IP-100,2013-06-27 18:12:00,
2013-06-27 14:17:00,87.0,83.3,27.66,NNE,22,0.0,0.0,89,0.00,,,0.14,Rainwise IP-100,2013-06-27 18:17:00,
2013-06-27 14:22:00,87.0,83.3,27.65,South,180,0.0,0.0,89,0.00,,,0.14,Rainwise IP-100,2013-06-27 18:22:00,
2013-06-27 14:27:00,87.0,83.3,27.65,West,270,0.0,0.0,89,0.00,,,0.14,Rainwise IP-100,2013-06-27 18:27:00,
2013-06-27 14:32:00,85.0,82.0,27.66,West,270,0.0,0.0,91,0.00,,,0.14,Rainwise IP-100,2013-06-27 18:32:00,
2013-06-27 14:37:00,84.0,81.0,27.66,West,270,0.0,0.0,91,0.00,,,0.14,Rainwise IP-100,2013-06-27 18:37:00,
2013-06-27 14:42:00,84.0,81.0,27.66,West,270,0.0,0.0,91,0.00,,,0.14,Rainwise IP-100,2013-06-27 18:42:00,
2013-06-27 14:47:00,84.0,81.0,27.66,West,270,0.0,0.0,91,0.00,,,0.14,Rainwise IP-100,2013-06-27 18:47:00,
2013-06-27 14:52:00,84.0,81.0,27.66,West,270,0.0,0.0,91,0.00,,,0.14,Rainwise IP-100,2013-06-27 18:52:00,
2013-06-27 14:57:00,84.0,81.0,27.66,West,270,0.0,0.0,91,0.00,,,0.14,Rainwise IP-100,2013-06-27 18:57:00,
2013-06-27 15:02:00,84.0,81.7,27.65,West,270,0.0,0.0,92,0.00,,,0.14,Rainwise IP-100,2013-06-27 19:02:00,
2013-06-27 15:07:00,83.0,80.0,27.65,West,270,0.0,0.0,90,0.00,,,0.14,Rainwise IP-100,2013-06-27 19:07:00,
2013-06-27 15:12:00,82.0,-23.0,27.65,West,270,0.0,0.0,0,0.60,,,0.24,Rainwise IP-100,2013-06-27 19:12:00,
2013-06-27 15:17:00,76.0,45.0,27.68,ESE,112,0.0,3.0,33,1.44,,,0.38,Rainwise IP-100,2013-06-27 19:17:00,
2013-06-27 15:28:00,74.0,-23.0,27.69,ESE,112,0.0,3.0,0,0.00,,,0.41,Rainwise IP-100,2013-06-27 19:28:00,
2013-06-27 15:33:00,75.0,-23.0,27.68,ESE,112,0.0,0.0,0,0.18,,,0.41,Rainwise IP-100,2013-06-27 19:33:00,
2013-06-27 15:38:00,77.0,-23.0,27.68,ESE,112,0.0,0.0,0,0.18,,,0.41,Rainwise IP-100,2013-06-27 19:38:00,
2013-06-27 15:43:00,78.0,-23.0,27.66,ESE,112,0.0,0.0,0,0.00,,,0.41,Rainwise IP-100,2013-06-27 19:43:00,
2013-06-27 15:48:00,79.0,-23.0,27.66,ESE,112,0.0,0.0,0,0.00,,,0.41,Rainwise IP-100,2013-06-27 19:48:00,
2013-06-27 15:53:00,79.0,-23.0,27.66,ESE,112,0.0,0.0,0,0.00,,,0.41,Rainwise IP-100,2013-06-27 19:53:00,
2013-06-27 15:58:00,79.0,-23.0,27.66,ESE,112,0.0,0.0,0,0.00,,,0.41,Rainwise IP-100,2013-06-27 19:58:00,
2013-06-27 16:03:00,80.0,-23.0,27.66,ESE,112,0.0,0.0,0,0.00,,,0.41,Rainwise IP-100,2013-06-27 20:03:00,
2013-06-27 16:08:00,80.0,-23.0,27.66,ESE,112,0.0,0.0,0,0.00,,,0.41,Rainwise IP-100,2013-06-27 20:08:00,
2013-06-27 16:13:00,80.0,-23.0,27.65,ESE,112,0.0,0.0,0,0.00,,,0.41,Rainwise IP-100,2013-06-27 20:13:00,
2013-06-27 16:18:00,80.0,-23.0,27.65,ESE,112,0.0,0.0,0,0.00,,,0.41,Rainwise IP-100,2013-06-27 20:18:00,
2013-06-27 16:23:00,81.0,-23.0,27.64,ESE,112,0.0,0.0,0,0.00,,,0.41,Rainwise IP-100,2013-06-27 20:23:00,
2013-06-27 16:28:00,80.0,-23.0,27.64,ESE,112,0.0,0.0,0,0.00,,,0.41,Rainwise IP-100,2013-06-27 20:28:00,
2013-06-27 16:33:00,80.0,-23.0,27.65,NNE,22,2.0,2.0,0,0.00,,,0.41,Rainwise IP-100,2013-06-27 20:33:00,
2013-06-27 16:38:00,80.0,-23.0,27.65,NNE,22,0.0,3.0,0,0.00,,,0.41,Rainwise IP-100,2013-06-27 20:38:00,
2013-06-27 16:43:00,80.0,-23.0,27.64,NNE,22,0.0,3.0,0,0.00,,,0.41,Rainwise IP-100,2013-06-27 20:43:00,
2013-06-27 16:48:00,81.0,-23.0,27.64,NNE,22,0.0,0.0,0,0.00,,,0.41,Rainwise IP-100,2013-06-27 20:48:00,
2013-06-27 16:53:00,80.0,-23.0,27.63,NNE,22,0.0,0.0,0,0.00,,,0.41,Rainwise IP-100,2013-06-27 20:53:00,
2013-06-27 16:58:00,79.0,-23.0,27.63,NNE,22,0.0,0.0,0,0.00,,,0.41,Rainwise IP-100,2013-06-27 20:58:00,
2013-06-27 17:03:00,79.0,-23.0,27.64,NNE,22,0.0,0.0,0,0.00,,,0.41,Rainwise IP-100,2013-06-27 21:03:00,
2013-06-27 17:08:00,78.0,-23.0,27.64,NNE,22,0.0,0.0,0,0.00,,,0.41,Rainwise IP-100,2013-06-27 21:08:00,
2013-06-27 17:13:00,78.0,-23.0,27.64,NNE,22,0.0,0.0,0,0.00,,,0.41,Rainwise IP-100,2013-06-27 21:13:00,
2013-06-27 17:18:00,77.0,-23.0,27.64,NNE,22,0.0,4.0,0,0.00,,,0.41,Rainwise IP-100,2013-06-27 21:18:00,
2013-06-27 17:23:00,76.0,-23.0,27.66,NNE,22,0.0,2.0,0,0.00,,,0.41,Rainwise IP-100,2013-06-27 21:23:00,
2013-06-27 17:28:00,75.0,-23.0,27.66,NNE,22,0.0,2.0,0,0.00,,,0.41,Rainwise IP-100,2013-06-27 21:28:00,
2013-06-27 17:33:00,75.0,-23.0,27.65,NNE,22,0.0,2.0,0,0.00,,,0.41,Rainwise IP-100,2013-06-27 21:33:00,
2013-06-27 17:38:00,74.0,-23.0,27.65,NNE,22,0.0,1.0,0,0.00,,,0.41,Rainwise IP-100,2013-06-27 21:38:00,
2013-06-27 17:43:00,74.0,-23.0,27.65,ENE,67,0.0,0.0,0,0.00,,,0.41,Rainwise IP-100,2013-06-27 21:43:00,
2013-06-27 17:48:00,74.0,-23.0,27.65,ENE,67,0.0,0.0,0,0.00,,,0.41,Rainwise IP-100,2013-06-27 21:48:00,
2013-06-27 17:53:00,74.0,-23.0,27.65,SE,135,1.0,0.0,0,0.00,,,0.41,Rainwise IP-100,2013-06-27 21:53:00,
2013-06-27 17:58:00,74.0,-23.0,27.65,SE,135,0.0,1.0,0,0.00,,,0.41,Rainwise IP-100,2013-06-27 21:58:00,
2013-06-27 18:03:00,74.0,-23.0,27.64,West,270,2.0,2.0,0,0.00,,,0.41,Rainwise IP-100,2013-06-27 22:03:00,
2013-06-27 18:08:00,74.0,-23.0,27.64,NNW,337,0.0,3.0,0,0.00,,,0.41,Rainwise IP-100,2013-06-27 22:08:00,
2013-06-27 18:13:00,74.0,-23.0,27.64,North,360,2.0,3.0,0,0.00,,,0.41,Rainwise IP-100,2013-06-27 22:13:00,
2013-06-27 18:18:00,75.0,-23.0,27.64,North,360,0.0,3.0,0,0.00,,,0.41,Rainwise IP-100,2013-06-27 22:18:00,
2013-06-27 18:23:00,75.0,-23.0,27.64,ESE,112,0.0,0.0,0,0.00,,,0.41,Rainwise IP-100,2013-06-27 22:23:00,
2013-06-27 18:28:00,75.0,-23.0,27.64,ESE,112,0.0,0.0,0,0.00,,,0.41,Rainwise IP-100,2013-06-27 22:28:00,
2013-06-27 18:33:00,74.0,-23.0,27.65,ENE,67,0.0,0.0,0,0.00,,,0.41,Rainwise IP-100,2013-06-27 22:33:00,
2013-06-27 18:38:00,74.0,-23.0,27.65,WSW,247,0.0,5.0,0,0.00,,,0.41,Rainwise IP-100,2013-06-27 22:38:00,
2013-06-27 18:43:00,73.0,-13.0,27.65,East,90,0.0,3.0,2,0.00,,,0.41,Rainwise IP-100,2013-06-27 22:43:00,
2013-06-27 18:48:00,73.0,-23.0,27.65,East,90,0.0,0.0,0,0.00,,,0.41,Rainwise IP-100,2013-06-27 22:48:00,
2013-06-27 18:53:00,73.0,-23.0,27.66,East,90,0.0,0.0,0,0.00,,,0.41,Rainwise IP-100,2013-06-27 22:53:00,
2013-06-27 18:58:00,73.0,-23.0,27.66,SE,135,0.0,3.0,0,0.00,,,0.41,Rainwise IP-100,2013-06-27 22:58:00,
2013-06-27 19:03:00,73.0,-23.0,27.65,SE,135,0.0,0.0,0,0.00,,,0.41,Rainwise IP-100,2013-06-27 23:03:00,
2013-06-27 19:08:00,73.0,-23.0,27.65,SE,135,0.0,0.0,0,0.00,,,0.41,Rainwise IP-100,2013-06-27 23:08:00,
2013-06-27 19:13:00,73.0,-23.0,27.66,SE,135,0.0,0.0,0,0.00,,,0.41,Rainwise IP-100,2013-06-27 23:13:00,
2013-06-27 19:18:00,73.0,-23.0,27.66,SE,135,0.0,0.0,0,0.00,,,0.41,Rainwise IP-100,2013-06-27 23:18:00,
2013-06-27 19:23:00,72.0,-23.0,27.66,SE,135,0.0,0.0,0,0.00,,,0.41,Rainwise IP-100,2013-06-27 23:23:00,
2013-06-27 19:28:00,72.0,-23.0,27.66,SE,135,0.0,0.0,0,0.00,,,0.41,Rainwise IP-100,2013-06-27 23:28:00,
2013-06-27 19:33:00,72.0,-23.0,27.67,SE,135,0.0,0.0,0,0.00,,,0.41,Rainwise IP-100,2013-06-27 23:33:00,
2013-06-27 19:38:00,72.0,-23.0,27.67,SE,135,0.0,0.0,0,0.00,,,0.41,Rainwise IP-100,2013-06-27 23:38:00,
2013-06-27 19:43:00,72.0,-23.0,27.67,SE,135,0.0,0.0,0,0.00,,,0.41,Rainwise IP-100,2013-06-27 23:43:00,
2013-06-27 19:48:00,72.0,-23.0,27.67,SE,135,0.0,0.0,0,0.00,,,0.41,Rainwise IP-100,2013-06-27 23:48:00,
2013-06-27 19:53:00,71.0,-23.0,27.66,SE,135,0.0,0.0,0,0.00,,,0.41,Rainwise IP-100,2013-06-27 23:53:00,
2013-06-27 19:58:00,71.0,-23.0,27.66,SE,135,0.0,0.0,0,0.00,,,0.41,Rainwise IP-100,2013-06-27 23:58:00,
2013-06-27 20:03:00,71.0,-23.0,27.67,SE,135,0.0,0.0,0,0.00,,,0.41,Rainwise IP-100,2013-06-28 00:03:00,
2013-06-27 20:08:00,71.0,-23.0,27.67,SE,135,0.0,0.0,0,0.00,,,0.41,Rainwise IP-100,2013-06-28 00:08:00,
2013-06-27 20:13:00,70.0,-23.0,27.67,SE,135,0.0,0.0,0,0.00,,,0.41,Rainwise IP-100,2013-06-28 00:13:00,
2013-06-27 20:18:00,70.0,-23.0,27.67,SE,135,0.0,0.0,0,0.00,,,0.41,Rainwise IP-100,2013-06-28 00:18:00,
2013-06-27 20:23:00,70.0,-23.0,27.67,SE,135,0.0,0.0,0,0.00,,,0.41,Rainwise IP-100,2013-06-28 00:23:00,
2013-06-27 20:28:00,70.0,-23.0,27.67,SE,135,0.0,0.0,0,0.00,,,0.41,Rainwise IP-100,2013-06-28 00:28:00,
2013-06-27 20:33:00,70.0,-23.0,27.67,SE,135,0.0,0.0,0,0.00,,,0.41,Rainwise IP-100,2013-06-28 00:33:00,
2013-06-27 20:38:00,69.0,-23.0,27.67,SE,135,0.0,0.0,0,0.00,,,0.41,Rainwise IP-100,2013-06-28 00:38:00,
2013-06-27 20:43:00,69.0,-23.0,27.68,SE,135,0.0,0.0,0,0.00,,,0.41,Rainwise IP-100,2013-06-28 00:43:00,
2013-06-27 20:48:00,69.0,-23.0,27.68,SE,135,0.0,0.0,0,0.00,,,0.41,Rainwise IP-100,2013-06-28 00:48:00,
2013-06-27 20:53:00,69.0,-23.0,27.68,SE,135,0.0,0.0,0,0.00,,,0.41,Rainwise IP-100,2013-06-28 00:53:00,
2013-06-27 20:58:00,68.0,-23.0,27.68,SE,135,0.0,0.0,0,0.00,,,0.41,Rainwise IP-100,2013-06-28 00:58:00,
2013-06-27 21:04:00,68.0,-23.0,27.68,SE,135,0.0,0.0,0,0.00,,,0.41,Rainwise IP-100,2013-06-28 01:04:00,
2013-06-27 21:09:00,68.0,-23.0,27.68,SE,135,0.0,0.0,0,0.00,,,0.41,Rainwise IP-100,2013-06-28 01:09:00,
2013-06-27 21:14:00,68.0,-23.0,27.68,SE,135,0.0,0.0,0,0.00,,,0.41,Rainwise IP-100,2013-06-28 01:14:00,
2013-06-27 21:19:00,68.0,-23.0,27.68,SE,135,0.0,0.0,0,0.00,,,0.41,Rainwise IP-100,2013-06-28 01:19:00,
2013-06-27 21:24:00,68.0,-23.0,27.68,SE,135,0.0,0.0,0,0.00,,,0.41,Rainwise IP-100,2013-06-28 01:24:00,
2013-06-27 21:29:00,68.0,-23.0,27.68,SE,135,0.0,0.0,0,0.00,,,0.41,Rainwise IP-100,2013-06-28 01:29:00,
2013-06-27 21:34:00,68.0,-23.0,27.70,SE,135,0.0,0.0,0,0.00,,,0.41,Rainwise IP-100,2013-06-28 01:34:00,
2013-06-27 21:39:00,68.0,-23.0,27.70,SE,135,0.0,0.0,0,0.00,,,0.41,Rainwise IP-100,2013-06-28 01:39:00,
2013-06-27 21:44:00,68.0,-23.0,27.70,SE,135,0.0,0.0,0,0.00,,,0.41,Rainwise IP-100,2013-06-28 01:44:00,
2013-06-27 21:49:00,68.0,-23.0,27.70,SE,135,0.0,0.0,0,0.00,,,0.41,Rainwise IP-100,2013-06-28 01:49:00,
2013-06-27 21:54:00,68.0,-23.0,27.70,SE,135,0.0,0.0,0,0.00,,,0.41,Rainwise IP-100,2013-06-28 01:54:00,
2013-06-27 21:59:00,68.0,-23.0,27.70,SE,135,0.0,0.0,0,0.00,,,0.41,Rainwise IP-100,2013-06-28 01:59:00,
2013-06-27 22:04:00,68.0,-23.0,27.70,SE,135,0.0,0.0,0,0.00,,,0.41,Rainwise IP-100,2013-06-28 02:04:00,
2013-06-27 22:09:00,68.0,-23.0,27.70,SE,135,0.0,0.0,0,0.00,,,0.41,Rainwise IP-100,2013-06-28 02:09:00,
2013-06-27 22:14:00,68.0,-23.0,27.70,SE,135,0.0,0.0,0,0.00,,,0.41,Rainwise IP-100,2013-06-28 02:14:00,
2013-06-27 22:19:00,68.0,-23.0,27.70,SE,135,0.0,0.0,0,0.00,,,0.41,Rainwise IP-100,2013-06-28 02:19:00,
2013-06-27 22:24:00,68.0,-23.0,27.70,SE,135,0.0,0.0,0,0.00,,,0.41,Rainwise IP-100,2013-06-28 02:24:00,
2013-06-27 22:29:00,68.0,-23.0,27.70,SE,135,0.0,0.0,0,0.00,,,0.41,Rainwise IP-100,2013-06-28 02:29:00,
2013-06-27 22:34:00,68.0,-23.0,27.70,SE,135,0.0,0.0,0,0.00,,,0.41,Rainwise IP-100,2013-06-28 02:34:00,
2013-06-27 22:39:00,68.0,-23.0,27.70,SE,135,0.0,0.0,0,0.00,,,0.41,Rainwise IP-100,2013-06-28 02:39:00,
2013-06-27 22:44:00,68.0,-23.0,27.70,SE,135,0.0,0.0,0,0.00,,,0.41,Rainwise IP-100,2013-06-28 02:44:00,
2013-06-27 22:49:00,68.0,-23.0,27.70,SE,135,0.0,0.0,0,0.00,,,0.41,Rainwise IP-100,2013-06-28 02:49:00,
2013-06-27 22:56:00,68.0,-23.0,27.70,SE,135,0.0,0.0,0,0.06,,,0.42,Rainwise IP-100,2013-06-28 02:56:00,
2013-06-27 23:01:00,68.0,-23.0,27.71,SE,135,0.0,0.0,0,0.18,,,0.45,Rainwise IP-100,2013-06-28 03:01:00,
2013-06-27 23:06:00,68.0,-23.0,27.71,ENE,67,0.0,0.0,0,0.24,,,0.46,Rainwise IP-100,2013-06-28 03:06:00,
2013-06-27 23:11:00,68.0,-23.0,27.71,ENE,67,0.0,0.0,0,0.06,,,0.46,Rainwise IP-100,2013-06-28 03:11:00,
2013-06-27 23:16:00,68.0,-23.0,27.71,ENE,67,0.0,0.0,0,0.00,,,0.46,Rainwise IP-100,2013-06-28 03:16:00,
2013-06-27 23:21:00,68.0,-23.0,27.71,ENE,67,0.0,0.0,0,0.00,,,0.46,Rainwise IP-100,2013-06-28 03:21:00,